This is the latest recevied weather packets stored in our database for station/object G7GQA-4. If no packets are shown the sender has not sent any weather packets the latest 10 day(s).
| Time | Temp. | Humidity | Pressure | Rain* | Wind** | Luminosity | Snow |
|---|---|---|---|---|---|---|---|
| 1777802723 | 16.11° C | 73% | - | 0 mm | - | 658 W/m² | - |
| 1777802123 | 15.56° C | 74% | - | 0 mm | - | 422 W/m² | - |
| 1777801523 | 15° C | 76% | - | 0 mm | - | 708 W/m² | - |
| 1777800923 | 14.44° C | 82% | - | 0 mm | - | 376 W/m² | - |
| 1777800323 | 13.89° C | 82% | - | 0 mm | - | 319 W/m² | - |
| 1777799723 | 14.44° C | 79% | - | 0 mm | - | 227 W/m² | - |
| 1777799123 | 13.89° C | 81% | - | 0 mm | - | 345 W/m² | - |
| 1777798523 | 13.89° C | 80% | - | 0 mm | - | 311 W/m² | - |
| 1777797923 | 12.78° C | 85% | - | 0 mm | - | 280 W/m² | - |
| 1777797323 | 12.78° C | 86% | - | 0 mm | - | 197 W/m² | - |
| 1777796723 | 12.78° C | 87% | - | 0 mm | - | 110 W/m² | - |
| 1777796123 | 12.22° C | 88% | - | 0 mm | - | 160 W/m² | - |
| 1777795523 | 12.22° C | 90% | - | 0 mm | - | 206 W/m² | - |
| 1777794923 | 11.67° C | 90% | - | 0 mm | - | 139 W/m² | - |
| 1777794323 | 11.67° C | 92% | - | 0 mm | - | 158 W/m² | - |
| 1777793723 | 11.67° C | 92% | - | 0 mm | - | 94 W/m² | - |
| 1777793123 | 11.67° C | 93% | - | 0 mm | - | 112 W/m² | - |
| 1777792523 | 11.11° C | 93% | - | 0 mm | - | 62 W/m² | - |
| 1777791923 | 11.11° C | 93% | - | 0 mm | - | 53 W/m² | - |
| 1777791323 | 11.11° C | 94% | - | 0 mm | - | 53 W/m² | - |
| 1777790723 | 11.11° C | 94% | - | 0 mm | - | 68 W/m² | - |
| 1777790123 | 11.11° C | 94% | - | 0 mm | - | 60 W/m² | - |
| 1777789523 | 10.56° C | 94% | - | 0 mm | - | 34 W/m² | - |
| 1777788923 | 11.11° C | 95% | - | 0 mm | - | 33 W/m² | - |
| 1777788323 | 11.11° C | 95% | - | 0 mm | - | 31 W/m² | - |
* Rain latest hour (hover to see other rain measurements)
** Current wind speed in m/s (hover to see current wind gust speed)